sensor_id;sensor_type;location;lat;lon;timestamp;temperature;humidity
19781;DHT22;10050;55.492;13.506;2023-08-06T00:02:24;15.00;99.90
19781;DHT22;10050;55.492;13.506;2023-08-06T00:04:49;15.00;99.90
19781;DHT22;10050;55.492;13.506;2023-08-06T00:07:15;15.00;99.90
19781;DHT22;10050;55.492;13.506;2023-08-06T00:09:41;15.00;99.90
19781;DHT22;10050;55.492;13.506;2023-08-06T00:12:09;15.00;99.90
19781;DHT22;10050;55.492;13.506;2023-08-06T00:14:35;15.00;99.90
19781;DHT22;10050;55.492;13.506;2023-08-06T00:17:00;14.90;99.90
19781;DHT22;10050;55.492;13.506;2023-08-06T00:19:26;14.90;99.90
19781;DHT22;10050;55.492;13.506;2023-08-06T00:21:52;14.90;99.90
19781;DHT22;10050;55.492;13.506;2023-08-06T00:24:17;14.90;99.90
19781;DHT22;10050;55.492;13.506;2023-08-06T00:26:43;14.90;99.90
19781;DHT22;10050;55.492;13.506;2023-08-06T00:29:11;14.90;99.90
19781;DHT22;10050;55.492;13.506;2023-08-06T00:31:37;14.80;99.90
19781;DHT22;10050;55.492;13.506;2023-08-06T00:34:02;14.80;99.90
19781;DHT22;10050;55.492;13.506;2023-08-06T00:36:28;14.80;99.90
19781;DHT22;10050;55.492;13.506;2023-08-06T00:38:54;14.80;99.90
19781;DHT22;10050;55.492;13.506;2023-08-06T00:41:21;14.80;99.90
19781;DHT22;10050;55.492;13.506;2023-08-06T00:43:46;14.80;99.90
19781;DHT22;10050;55.492;13.506;2023-08-06T00:46:12;14.70;99.90
19781;DHT22;10050;55.492;13.506;2023-08-06T00:48:39;14.70;99.90
19781;DHT22;10050;55.492;13.506;2023-08-06T00:51:05;14.70;99.90
19781;DHT22;10050;55.492;13.506;2023-08-06T00:53:31;14.70;99.90
19781;DHT22;10050;55.492;13.506;2023-08-06T00:55:57;14.70;99.90
19781;DHT22;10050;55.492;13.506;2023-08-06T00:58:23;14.60;99.90
19781;DHT22;10050;55.492;13.506;2023-08-06T01:00:49;14.70;99.90
19781;DHT22;10050;55.492;13.506;2023-08-06T01:03:15;14.60;99.90
19781;DHT22;10050;55.492;13.506;2023-08-06T01:05:41;14.60;99.90
19781;DHT22;10050;55.492;13.506;2023-08-06T01:11:41;14.60;99.90
19781;DHT22;10050;55.492;13.506;2023-08-06T01:14:20;14.60;99.90
19781;DHT22;10050;55.492;13.506;2023-08-06T01:16:50;14.60;99.90
19781;DHT22;10050;55.492;13.506;2023-08-06T01:19:19;14.60;99.90
19781;DHT22;10050;55.492;13.506;2023-08-06T01:21:45;14.60;99.90
19781;DHT22;10050;55.492;13.506;2023-08-06T01:24:11;14.60;99.90
19781;DHT22;10050;55.492;13.506;2023-08-06T01:26:39;14.60;99.90
19781;DHT22;10050;55.492;13.506;2023-08-06T01:29:17;14.60;99.90
19781;DHT22;10050;55.492;13.506;2023-08-06T01:31:47;14.60;99.90
19781;DHT22;10050;55.492;13.506;2023-08-06T01:34:34;14.60;99.90
19781;DHT22;10050;55.492;13.506;2023-08-06T01:37:01;14.60;99.90
19781;DHT22;10050;55.492;13.506;2023-08-06T01:39:27;14.50;99.90
19781;DHT22;10050;55.492;13.506;2023-08-06T01:41:52;14.50;99.90
19781;DHT22;10050;55.492;13.506;2023-08-06T01:44:18;14.50;99.90
19781;DHT22;10050;55.492;13.506;2023-08-06T01:46:44;14.50;99.90
19781;DHT22;10050;55.492;13.506;2023-08-06T01:49:09;14.50;99.90
19781;DHT22;10050;55.492;13.506;2023-08-06T01:51:35;14.50;99.90
19781;DHT22;10050;55.492;13.506;2023-08-06T01:54:00;14.50;99.90
19781;DHT22;10050;55.492;13.506;2023-08-06T01:56:26;14.50;99.90
19781;DHT22;10050;55.492;13.506;2023-08-06T01:58:51;14.50;99.90
19781;DHT22;10050;55.492;13.506;2023-08-06T02:01:17;14.50;99.90
19781;DHT22;10050;55.492;13.506;2023-08-06T02:03:43;14.50;99.90
19781;DHT22;10050;55.492;13.506;2023-08-06T02:06:08;14.40;99.90
19781;DHT22;10050;55.492;13.506;2023-08-06T02:08:34;14.40;99.90
19781;DHT22;10050;55.492;13.506;2023-08-06T02:11:00;14.40;99.90
19781;DHT22;10050;55.492;13.506;2023-08-06T02:13:26;14.40;99.90
19781;DHT22;10050;55.492;13.506;2023-08-06T02:15:51;14.40;99.90
19781;DHT22;10050;55.492;13.506;2023-08-06T02:18:17;14.40;99.90
19781;DHT22;10050;55.492;13.506;2023-08-06T02:20:43;14.40;99.90
19781;DHT22;10050;55.492;13.506;2023-08-06T02:23:09;14.40;99.90
19781;DHT22;10050;55.492;13.506;2023-08-06T02:25:35;14.40;99.90
19781;DHT22;10050;55.492;13.506;2023-08-06T02:28:00;14.40;99.90
19781;DHT22;10050;55.492;13.506;2023-08-06T02:30:26;14.30;99.90
19781;DHT22;10050;55.492;13.506;2023-08-06T02:32:52;14.30;99.90
19781;DHT22;10050;55.492;13.506;2023-08-06T02:35:19;14.30;99.90
19781;DHT22;10050;55.492;13.506;2023-08-06T02:37:49;14.30;99.90
19781;DHT22;10050;55.492;13.506;2023-08-06T02:40:15;14.30;99.90
19781;DHT22;10050;55.492;13.506;2023-08-06T02:42:40;14.30;99.90
19781;DHT22;10050;55.492;13.506;2023-08-06T02:45:06;14.30;99.90
19781;DHT22;10050;55.492;13.506;2023-08-06T02:47:32;14.30;99.90
19781;DHT22;10050;55.492;13.506;2023-08-06T02:49:58;14.30;99.90
19781;DHT22;10050;55.492;13.506;2023-08-06T02:52:23;14.30;99.90
19781;DHT22;10050;55.492;13.506;2023-08-06T02:54:49;14.40;99.90
19781;DHT22;10050;55.492;13.506;2023-08-06T02:57:14;14.40;99.90
19781;DHT22;10050;55.492;13.506;2023-08-06T02:59:41;14.30;99.90
19781;DHT22;10050;55.492;13.506;2023-08-06T03:02:07;14.40;99.90
19781;DHT22;10050;55.492;13.506;2023-08-06T03:04:33;14.40;99.90
19781;DHT22;10050;55.492;13.506;2023-08-06T03:06:58;14.40;99.90
19781;DHT22;10050;55.492;13.506;2023-08-06T03:09:24;14.40;99.90
19781;DHT22;10050;55.492;13.506;2023-08-06T03:11:50;14.40;99.90
19781;DHT22;10050;55.492;13.506;2023-08-06T03:14:15;14.40;99.90
19781;DHT22;10050;55.492;13.506;2023-08-06T03:16:44;14.40;99.90
19781;DHT22;10050;55.492;13.506;2023-08-06T03:19:09;14.40;99.90
19781;DHT22;10050;55.492;13.506;2023-08-06T03:21:35;14.40;99.90
19781;DHT22;10050;55.492;13.506;2023-08-06T03:24:01;14.40;99.90
19781;DHT22;10050;55.492;13.506;2023-08-06T03:26:26;14.40;99.90
19781;DHT22;10050;55.492;13.506;2023-08-06T03:28:52;14.40;99.90
19781;DHT22;10050;55.492;13.506;2023-08-06T03:31:17;14.50;99.90
19781;DHT22;10050;55.492;13.506;2023-08-06T03:33:43;14.40;99.90
19781;DHT22;10050;55.492;13.506;2023-08-06T03:36:08;14.50;99.90
19781;DHT22;10050;55.492;13.506;2023-08-06T03:38:34;14.50;99.90
19781;DHT22;10050;55.492;13.506;2023-08-06T03:41:00;14.50;99.90
19781;DHT22;10050;55.492;13.506;2023-08-06T03:43:25;14.50;99.90
19781;DHT22;10050;55.492;13.506;2023-08-06T03:45:51;14.50;99.90
19781;DHT22;10050;55.492;13.506;2023-08-06T03:48:16;14.50;99.90
19781;DHT22;10050;55.492;13.506;2023-08-06T03:50:42;14.50;99.90
19781;DHT22;10050;55.492;13.506;2023-08-06T03:53:08;14.50;99.90
19781;DHT22;10050;55.492;13.506;2023-08-06T03:55:33;14.50;99.90
19781;DHT22;10050;55.492;13.506;2023-08-06T03:57:59;14.50;99.90
19781;DHT22;10050;55.492;13.506;2023-08-06T04:00:25;14.50;99.90
19781;DHT22;10050;55.492;13.506;2023-08-06T04:02:50;14.60;99.90
19781;DHT22;10050;55.492;13.506;2023-08-06T04:05:17;14.60;99.90
19781;DHT22;10050;55.492;13.506;2023-08-06T04:07:42;14.60;99.90
19781;DHT22;10050;55.492;13.506;2023-08-06T04:10:08;14.60;99.90
19781;DHT22;10050;55.492;13.506;2023-08-06T04:12:34;14.60;99.90
19781;DHT22;10050;55.492;13.506;2023-08-06T04:15:02;14.60;99.90
19781;DHT22;10050;55.492;13.506;2023-08-06T04:17:29;14.60;99.90
19781;DHT22;10050;55.492;13.506;2023-08-06T04:19:55;14.70;99.90
19781;DHT22;10050;55.492;13.506;2023-08-06T04:22:23;14.70;99.90
19781;DHT22;10050;55.492;13.506;2023-08-06T04:24:49;14.70;99.90
19781;DHT22;10050;55.492;13.506;2023-08-06T04:27:16;14.70;99.90
19781;DHT22;10050;55.492;13.506;2023-08-06T04:29:42;14.80;99.90
19781;DHT22;10050;55.492;13.506;2023-08-06T04:32:09;14.80;99.90
19781;DHT22;10050;55.492;13.506;2023-08-06T04:34:35;14.80;99.90
19781;DHT22;10050;55.492;13.506;2023-08-06T04:37:02;14.80;99.90
19781;DHT22;10050;55.492;13.506;2023-08-06T04:39:28;14.90;99.90
19781;DHT22;10050;55.492;13.506;2023-08-06T04:41:55;14.90;99.90
19781;DHT22;10050;55.492;13.506;2023-08-06T04:44:21;14.90;99.90
19781;DHT22;10050;55.492;13.506;2023-08-06T04:46:47;14.90;99.90
19781;DHT22;10050;55.492;13.506;2023-08-06T04:49:13;15.00;99.90
19781;DHT22;10050;55.492;13.506;2023-08-06T04:51:38;15.00;99.90
19781;DHT22;10050;55.492;13.506;2023-08-06T04:54:04;15.00;99.90
19781;DHT22;10050;55.492;13.506;2023-08-06T04:56:30;15.00;99.90
19781;DHT22;10050;55.492;13.506;2023-08-06T04:58:55;15.00;99.90
19781;DHT22;10050;55.492;13.506;2023-08-06T05:01:21;15.10;99.90
19781;DHT22;10050;55.492;13.506;2023-08-06T05:03:47;15.00;99.90
19781;DHT22;10050;55.492;13.506;2023-08-06T05:06:13;15.10;99.90
19781;DHT22;10050;55.492;13.506;2023-08-06T05:08:39;15.10;99.90
19781;DHT22;10050;55.492;13.506;2023-08-06T05:11:04;15.20;99.90
19781;DHT22;10050;55.492;13.506;2023-08-06T05:13:30;15.20;99.90
19781;DHT22;10050;55.492;13.506;2023-08-06T05:15:56;15.20;99.90
19781;DHT22;10050;55.492;13.506;2023-08-06T05:18:21;15.20;99.90
19781;DHT22;10050;55.492;13.506;2023-08-06T05:20:47;15.20;99.90
19781;DHT22;10050;55.492;13.506;2023-08-06T05:23:13;15.20;99.90
19781;DHT22;10050;55.492;13.506;2023-08-06T05:25:39;15.30;99.90
19781;DHT22;10050;55.492;13.506;2023-08-06T05:28:04;15.30;99.90
19781;DHT22;10050;55.492;13.506;2023-08-06T05:30:30;15.40;99.90
19781;DHT22;10050;55.492;13.506;2023-08-06T05:32:56;15.30;99.90
19781;DHT22;10050;55.492;13.506;2023-08-06T05:35:22;15.40;99.90
19781;DHT22;10050;55.492;13.506;2023-08-06T05:37:48;15.40;99.90
19781;DHT22;10050;55.492;13.506;2023-08-06T05:40:15;15.50;99.90
19781;DHT22;10050;55.492;13.506;2023-08-06T05:42:41;15.50;99.90
19781;DHT22;10050;55.492;13.506;2023-08-06T05:45:07;15.60;99.90
19781;DHT22;10050;55.492;13.506;2023-08-06T05:47:32;15.60;99.90
19781;DHT22;10050;55.492;13.506;2023-08-06T05:49:58;15.70;99.90
19781;DHT22;10050;55.492;13.506;2023-08-06T05:52:24;15.70;99.90
19781;DHT22;10050;55.492;13.506;2023-08-06T05:54:49;15.80;99.90
19781;DHT22;10050;55.492;13.506;2023-08-06T05:57:16;15.90;99.90
19781;DHT22;10050;55.492;13.506;2023-08-06T05:59:42;16.00;99.90
19781;DHT22;10050;55.492;13.506;2023-08-06T06:02:07;16.10;99.90
19781;DHT22;10050;55.492;13.506;2023-08-06T06:04:33;16.20;99.90
19781;DHT22;10050;55.492;13.506;2023-08-06T06:06:59;16.20;99.90
19781;DHT22;10050;55.492;13.506;2023-08-06T06:09:24;16.20;99.90
19781;DHT22;10050;55.492;13.506;2023-08-06T06:11:50;16.30;99.90
19781;DHT22;10050;55.492;13.506;2023-08-06T06:14:19;16.30;99.90
19781;DHT22;10050;55.492;13.506;2023-08-06T06:16:45;16.40;99.90
19781;DHT22;10050;55.492;13.506;2023-08-06T06:19:11;16.40;99.90
19781;DHT22;10050;55.492;13.506;2023-08-06T06:21:38;16.50;99.90
19781;DHT22;10050;55.492;13.506;2023-08-06T06:24:05;16.50;99.90
19781;DHT22;10050;55.492;13.506;2023-08-06T06:26:31;16.50;99.90
19781;DHT22;10050;55.492;13.506;2023-08-06T06:28:57;16.50;99.90
19781;DHT22;10050;55.492;13.506;2023-08-06T06:31:23;16.50;99.90
19781;DHT22;10050;55.492;13.506;2023-08-06T06:33:49;16.40;99.90
19781;DHT22;10050;55.492;13.506;2023-08-06T06:36:14;16.40;99.90
19781;DHT22;10050;55.492;13.506;2023-08-06T06:38:40;16.50;99.90
19781;DHT22;10050;55.492;13.506;2023-08-06T06:41:05;16.50;99.90
19781;DHT22;10050;55.492;13.506;2023-08-06T06:43:32;16.50;99.90
19781;DHT22;10050;55.492;13.506;2023-08-06T06:45:59;16.50;99.90
19781;DHT22;10050;55.492;13.506;2023-08-06T06:48:32;16.50;99.90
19781;DHT22;10050;55.492;13.506;2023-08-06T06:50:57;16.50;99.90
19781;DHT22;10050;55.492;13.506;2023-08-06T06:53:23;16.50;99.90
19781;DHT22;10050;55.492;13.506;2023-08-06T06:55:56;16.50;99.90
19781;DHT22;10050;55.492;13.506;2023-08-06T06:58:26;16.50;99.90
19781;DHT22;10050;55.492;13.506;2023-08-06T07:00:52;16.50;99.90
19781;DHT22;10050;55.492;13.506;2023-08-06T07:03:19;16.40;99.90
19781;DHT22;10050;55.492;13.506;2023-08-06T07:05:44;16.40;99.90
19781;DHT22;10050;55.492;13.506;2023-08-06T07:08:10;16.40;99.90
19781;DHT22;10050;55.492;13.506;2023-08-06T07:10:36;16.40;99.90
19781;DHT22;10050;55.492;13.506;2023-08-06T07:13:02;16.40;99.90
19781;DHT22;10050;55.492;13.506;2023-08-06T07:15:28;16.40;99.90
19781;DHT22;10050;55.492;13.506;2023-08-06T07:17:54;16.40;99.90
19781;DHT22;10050;55.492;13.506;2023-08-06T07:20:19;16.30;99.90
19781;DHT22;10050;55.492;13.506;2023-08-06T07:22:45;16.30;99.90
19781;DHT22;10050;55.492;13.506;2023-08-06T07:25:11;16.30;99.90
19781;DHT22;10050;55.492;13.506;2023-08-06T07:27:36;16.30;99.90
19781;DHT22;10050;55.492;13.506;2023-08-06T07:30:03;16.30;99.90
19781;DHT22;10050;55.492;13.506;2023-08-06T07:32:28;16.40;99.90
19781;DHT22;10050;55.492;13.506;2023-08-06T07:34:54;16.40;99.90
19781;DHT22;10050;55.492;13.506;2023-08-06T07:37:25;16.40;99.90
19781;DHT22;10050;55.492;13.506;2023-08-06T07:39:50;16.30;99.90
19781;DHT22;10050;55.492;13.506;2023-08-06T07:42:16;16.30;99.90
19781;DHT22;10050;55.492;13.506;2023-08-06T07:44:41;16.30;99.90
19781;DHT22;10050;55.492;13.506;2023-08-06T07:47:07;16.30;99.90
19781;DHT22;10050;55.492;13.506;2023-08-06T07:49:33;16.40;99.90
19781;DHT22;10050;55.492;13.506;2023-08-06T07:51:58;16.40;99.90
19781;DHT22;10050;55.492;13.506;2023-08-06T07:54:24;16.30;99.90
19781;DHT22;10050;55.492;13.506;2023-08-06T07:56:50;16.40;99.90
19781;DHT22;10050;55.492;13.506;2023-08-06T07:59:15;16.30;99.90
19781;DHT22;10050;55.492;13.506;2023-08-06T08:01:42;16.30;99.90
19781;DHT22;10050;55.492;13.506;2023-08-06T08:04:07;16.30;99.90
19781;DHT22;10050;55.492;13.506;2023-08-06T08:06:33;16.30;99.90
19781;DHT22;10050;55.492;13.506;2023-08-06T08:08:59;16.30;99.90
19781;DHT22;10050;55.492;13.506;2023-08-06T08:11:25;16.30;99.90
19781;DHT22;10050;55.492;13.506;2023-08-06T08:13:51;16.30;99.90
19781;DHT22;10050;55.492;13.506;2023-08-06T08:16:17;16.30;99.90
19781;DHT22;10050;55.492;13.506;2023-08-06T08:18:42;16.30;99.90
19781;DHT22;10050;55.492;13.506;2023-08-06T08:21:08;16.40;99.90
19781;DHT22;10050;55.492;13.506;2023-08-06T08:23:33;16.30;99.90
19781;DHT22;10050;55.492;13.506;2023-08-06T08:25:59;16.30;99.90
19781;DHT22;10050;55.492;13.506;2023-08-06T08:28:27;16.20;99.90
19781;DHT22;10050;55.492;13.506;2023-08-06T08:30:52;16.20;99.90
19781;DHT22;10050;55.492;13.506;2023-08-06T08:33:18;16.20;99.90
19781;DHT22;10050;55.492;13.506;2023-08-06T08:35:45;16.20;99.90
19781;DHT22;10050;55.492;13.506;2023-08-06T08:38:12;16.20;99.90
19781;DHT22;10050;55.492;13.506;2023-08-06T08:40:41;16.20;99.90
19781;DHT22;10050;55.492;13.506;2023-08-06T08:43:11;16.20;99.90
19781;DHT22;10050;55.492;13.506;2023-08-06T08:45:39;16.20;99.90
19781;DHT22;10050;55.492;13.506;2023-08-06T08:48:05;16.20;99.90
19781;DHT22;10050;55.492;13.506;2023-08-06T08:50:31;16.20;99.90
19781;DHT22;10050;55.492;13.506;2023-08-06T08:52:57;16.10;99.90
19781;DHT22;10050;55.492;13.506;2023-08-06T08:55:23;16.10;99.90
19781;DHT22;10050;55.492;13.506;2023-08-06T08:57:49;16.10;99.90
19781;DHT22;10050;55.492;13.506;2023-08-06T09:00:16;16.10;99.90
19781;DHT22;10050;55.492;13.506;2023-08-06T09:02:44;16.10;99.90
19781;DHT22;10050;55.492;13.506;2023-08-06T09:05:11;16.10;99.90
19781;DHT22;10050;55.492;13.506;2023-08-06T09:07:48;16.10;99.90
19781;DHT22;10050;55.492;13.506;2023-08-06T09:10:16;16.10;99.90
19781;DHT22;10050;55.492;13.506;2023-08-06T09:12:43;16.10;99.90
19781;DHT22;10050;55.492;13.506;2023-08-06T09:15:10;16.10;99.90
19781;DHT22;10050;55.492;13.506;2023-08-06T09:17:36;16.10;99.90
19781;DHT22;10050;55.492;13.506;2023-08-06T09:20:14;16.10;99.90
19781;DHT22;10050;55.492;13.506;2023-08-06T09:22:40;16.10;99.90
19781;DHT22;10050;55.492;13.506;2023-08-06T09:25:07;16.10;99.90
19781;DHT22;10050;55.492;13.506;2023-08-06T09:27:37;16.00;99.90
19781;DHT22;10050;55.492;13.506;2023-08-06T09:30:04;16.00;99.90
19781;DHT22;10050;55.492;13.506;2023-08-06T09:32:48;16.00;99.90
19781;DHT22;10050;55.492;13.506;2023-08-06T09:35:19;16.00;99.90
19781;DHT22;10050;55.492;13.506;2023-08-06T09:37:45;16.10;99.90
19781;DHT22;10050;55.492;13.506;2023-08-06T09:40:31;16.10;99.90
19781;DHT22;10050;55.492;13.506;2023-08-06T09:42:58;16.20;99.90
19781;DHT22;10050;55.492;13.506;2023-08-06T09:45:31;16.20;99.90
19781;DHT22;10050;55.492;13.506;2023-08-06T09:47:58;16.20;99.90
19781;DHT22;10050;55.492;13.506;2023-08-06T09:50:29;16.20;99.90
19781;DHT22;10050;55.492;13.506;2023-08-06T09:52:56;16.30;99.90
19781;DHT22;10050;55.492;13.506;2023-08-06T09:55:23;16.30;99.90
19781;DHT22;10050;55.492;13.506;2023-08-06T09:57:51;16.20;99.90
19781;DHT22;10050;55.492;13.506;2023-08-06T10:00:17;16.30;99.90
19781;DHT22;10050;55.492;13.506;2023-08-06T10:02:44;16.30;99.90
19781;DHT22;10050;55.492;13.506;2023-08-06T10:05:10;16.20;99.90
19781;DHT22;10050;55.492;13.506;2023-08-06T10:07:37;16.30;99.90
19781;DHT22;10050;55.492;13.506;2023-08-06T10:10:05;16.20;99.90
19781;DHT22;10050;55.492;13.506;2023-08-06T10:12:36;16.30;99.90
19781;DHT22;10050;55.492;13.506;2023-08-06T10:15:06;16.30;99.90
19781;DHT22;10050;55.492;13.506;2023-08-06T10:17:34;16.30;99.90
19781;DHT22;10050;55.492;13.506;2023-08-06T10:20:00;16.40;99.90
19781;DHT22;10050;55.492;13.506;2023-08-06T10:22:26;16.40;99.90
19781;DHT22;10050;55.492;13.506;2023-08-06T10:25:00;16.40;99.90
19781;DHT22;10050;55.492;13.506;2023-08-06T10:27:32;16.40;99.90
19781;DHT22;10050;55.492;13.506;2023-08-06T10:30:30;16.50;99.90
19781;DHT22;10050;55.492;13.506;2023-08-06T10:32:58;16.40;99.90
19781;DHT22;10050;55.492;13.506;2023-08-06T10:35:35;16.40;99.90
19781;DHT22;10050;55.492;13.506;2023-08-06T10:38:05;16.40;99.90
19781;DHT22;10050;55.492;13.506;2023-08-06T10:40:33;16.40;99.90
19781;DHT22;10050;55.492;13.506;2023-08-06T10:43:00;16.40;99.90
19781;DHT22;10050;55.492;13.506;2023-08-06T10:45:26;16.30;99.90
19781;DHT22;10050;55.492;13.506;2023-08-06T10:47:54;16.40;99.90
19781;DHT22;10050;55.492;13.506;2023-08-06T10:50:21;16.30;99.90
19781;DHT22;10050;55.492;13.506;2023-08-06T10:52:47;16.30;99.90
19781;DHT22;10050;55.492;13.506;2023-08-06T10:55:28;16.20;99.90
19781;DHT22;10050;55.492;13.506;2023-08-06T10:57:55;16.20;99.90
19781;DHT22;10050;55.492;13.506;2023-08-06T11:00:24;16.20;99.90
19781;DHT22;10050;55.492;13.506;2023-08-06T11:02:52;16.20;99.90
19781;DHT22;10050;55.492;13.506;2023-08-06T11:05:18;16.30;99.90
19781;DHT22;10050;55.492;13.506;2023-08-06T11:07:44;16.30;99.90
19781;DHT22;10050;55.492;13.506;2023-08-06T11:10:11;16.30;99.90
19781;DHT22;10050;55.492;13.506;2023-08-06T11:12:37;16.20;99.90
19781;DHT22;10050;55.492;13.506;2023-08-06T11:15:04;16.20;99.90
19781;DHT22;10050;55.492;13.506;2023-08-06T11:17:32;16.20;99.90
19781;DHT22;10050;55.492;13.506;2023-08-06T11:20:03;16.20;99.90
19781;DHT22;10050;55.492;13.506;2023-08-06T11:22:29;16.20;99.90
19781;DHT22;10050;55.492;13.506;2023-08-06T11:24:55;16.20;99.90
19781;DHT22;10050;55.492;13.506;2023-08-06T11:27:20;16.20;99.90
19781;DHT22;10050;55.492;13.506;2023-08-06T11:29:46;16.20;99.90
19781;DHT22;10050;55.492;13.506;2023-08-06T11:32:12;16.20;99.90
19781;DHT22;10050;55.492;13.506;2023-08-06T11:34:39;16.30;99.90
19781;DHT22;10050;55.492;13.506;2023-08-06T11:37:06;16.40;99.90
19781;DHT22;10050;55.492;13.506;2023-08-06T11:39:36;16.50;99.90
19781;DHT22;10050;55.492;13.506;2023-08-06T11:42:08;16.50;99.90
19781;DHT22;10050;55.492;13.506;2023-08-06T11:44:37;16.50;99.90
19781;DHT22;10050;55.492;13.506;2023-08-06T11:47:04;16.60;99.90
19781;DHT22;10050;55.492;13.506;2023-08-06T11:49:48;16.60;99.90
19781;DHT22;10050;55.492;13.506;2023-08-06T11:54:47;16.70;99.90
19781;DHT22;10050;55.492;13.506;2023-08-06T11:57:17;16.70;99.90
19781;DHT22;10050;55.492;13.506;2023-08-06T11:59:42;16.70;99.90
19781;DHT22;10050;55.492;13.506;2023-08-06T12:02:12;16.70;99.90
19781;DHT22;10050;55.492;13.506;2023-08-06T12:07:58;16.80;99.90
19781;DHT22;10050;55.492;13.506;2023-08-06T12:10:25;16.70;99.90
19781;DHT22;10050;55.492;13.506;2023-08-06T12:13:02;16.70;99.90
19781;DHT22;10050;55.492;13.506;2023-08-06T12:15:28;16.70;99.90
19781;DHT22;10050;55.492;13.506;2023-08-06T12:17:54;16.70;99.90
19781;DHT22;10050;55.492;13.506;2023-08-06T12:20:19;16.80;99.90
19781;DHT22;10050;55.492;13.506;2023-08-06T12:22:45;16.70;99.90
19781;DHT22;10050;55.492;13.506;2023-08-06T12:25:12;16.70;99.90
19781;DHT22;10050;55.492;13.506;2023-08-06T12:27:39;16.70;99.90
19781;DHT22;10050;55.492;13.506;2023-08-06T12:30:05;16.70;99.90
19781;DHT22;10050;55.492;13.506;2023-08-06T12:32:32;16.60;99.90
19781;DHT22;10050;55.492;13.506;2023-08-06T12:34:58;16.60;99.90
19781;DHT22;10050;55.492;13.506;2023-08-06T12:37:25;16.50;99.90
19781;DHT22;10050;55.492;13.506;2023-08-06T12:39:51;16.40;99.90
19781;DHT22;10050;55.492;13.506;2023-08-06T12:42:17;16.40;99.90
19781;DHT22;10050;55.492;13.506;2023-08-06T12:44:42;16.40;99.90
19781;DHT22;10050;55.492;13.506;2023-08-06T12:47:08;16.40;99.90
19781;DHT22;10050;55.492;13.506;2023-08-06T12:49:34;16.40;99.90
19781;DHT22;10050;55.492;13.506;2023-08-06T12:52:00;16.30;99.90
19781;DHT22;10050;55.492;13.506;2023-08-06T12:54:26;16.30;99.90
19781;DHT22;10050;55.492;13.506;2023-08-06T12:56:52;16.20;99.90
19781;DHT22;10050;55.492;13.506;2023-08-06T12:59:19;16.20;99.90
19781;DHT22;10050;55.492;13.506;2023-08-06T13:01:45;16.20;99.90
19781;DHT22;10050;55.492;13.506;2023-08-06T13:04:11;16.20;99.90
19781;DHT22;10050;55.492;13.506;2023-08-06T13:06:37;16.10;99.90
19781;DHT22;10050;55.492;13.506;2023-08-06T13:09:08;16.10;99.90
19781;DHT22;10050;55.492;13.506;2023-08-06T13:11:38;16.00;99.90
19781;DHT22;10050;55.492;13.506;2023-08-06T13:14:12;16.00;99.90
19781;DHT22;10050;55.492;13.506;2023-08-06T13:16:40;16.10;99.90
19781;DHT22;10050;55.492;13.506;2023-08-06T13:19:07;16.10;99.90
19781;DHT22;10050;55.492;13.506;2023-08-06T13:22:21;16.00;99.90
19781;DHT22;10050;55.492;13.506;2023-08-06T13:24:21;16.00;99.90
19781;DHT22;10050;55.492;13.506;2023-08-06T13:26:47;16.00;99.90
19781;DHT22;10050;55.492;13.506;2023-08-06T13:29:12;16.00;99.90
19781;DHT22;10050;55.492;13.506;2023-08-06T13:31:38;15.90;99.90
19781;DHT22;10050;55.492;13.506;2023-08-06T13:34:04;15.90;99.90
19781;DHT22;10050;55.492;13.506;2023-08-06T13:36:30;15.90;99.90
19781;DHT22;10050;55.492;13.506;2023-08-06T13:38:56;16.00;99.90
19781;DHT22;10050;55.492;13.506;2023-08-06T13:41:22;15.90;99.90
19781;DHT22;10050;55.492;13.506;2023-08-06T13:43:48;15.90;99.90
19781;DHT22;10050;55.492;13.506;2023-08-06T13:46:14;15.90;99.90
19781;DHT22;10050;55.492;13.506;2023-08-06T13:48:45;16.00;99.90
19781;DHT22;10050;55.492;13.506;2023-08-06T13:51:12;15.90;99.90
19781;DHT22;10050;55.492;13.506;2023-08-06T13:53:38;16.00;99.90
19781;DHT22;10050;55.492;13.506;2023-08-06T13:56:05;16.00;99.90
19781;DHT22;10050;55.492;13.506;2023-08-06T13:58:31;16.10;99.90
19781;DHT22;10050;55.492;13.506;2023-08-06T14:00:57;16.10;99.90
19781;DHT22;10050;55.492;13.506;2023-08-06T14:03:23;16.20;99.90
19781;DHT22;10050;55.492;13.506;2023-08-06T14:05:49;16.10;99.90
19781;DHT22;10050;55.492;13.506;2023-08-06T14:08:15;16.10;99.90
19781;DHT22;10050;55.492;13.506;2023-08-06T14:10:44;16.00;99.90
19781;DHT22;10050;55.492;13.506;2023-08-06T14:13:09;16.00;99.90
19781;DHT22;10050;55.492;13.506;2023-08-06T14:15:35;16.00;99.90
19781;DHT22;10050;55.492;13.506;2023-08-06T14:18:02;16.10;99.90
19781;DHT22;10050;55.492;13.506;2023-08-06T14:20:28;16.00;99.90
19781;DHT22;10050;55.492;13.506;2023-08-06T14:22:53;16.10;99.90
19781;DHT22;10050;55.492;13.506;2023-08-06T14:25:19;16.00;99.90
19781;DHT22;10050;55.492;13.506;2023-08-06T14:27:45;15.90;99.90
19781;DHT22;10050;55.492;13.506;2023-08-06T14:30:11;15.90;99.90
19781;DHT22;10050;55.492;13.506;2023-08-06T14:32:37;15.90;99.90
19781;DHT22;10050;55.492;13.506;2023-08-06T14:35:03;15.90;99.90
19781;DHT22;10050;55.492;13.506;2023-08-06T14:37:28;15.90;99.90
19781;DHT22;10050;55.492;13.506;2023-08-06T14:39:54;15.80;99.90
19781;DHT22;10050;55.492;13.506;2023-08-06T14:42:19;15.80;99.90
19781;DHT22;10050;55.492;13.506;2023-08-06T14:44:45;15.70;99.90
19781;DHT22;10050;55.492;13.506;2023-08-06T14:47:11;15.70;99.90
19781;DHT22;10050;55.492;13.506;2023-08-06T14:49:37;15.60;99.90
19781;DHT22;10050;55.492;13.506;2023-08-06T14:52:04;15.60;99.90
19781;DHT22;10050;55.492;13.506;2023-08-06T14:54:29;15.60;99.90
19781;DHT22;10050;55.492;13.506;2023-08-06T14:56:56;15.50;99.90
19781;DHT22;10050;55.492;13.506;2023-08-06T14:59:22;15.40;99.90
19781;DHT22;10050;55.492;13.506;2023-08-06T15:01:50;15.40;99.90
19781;DHT22;10050;55.492;13.506;2023-08-06T15:04:17;15.30;99.90
19781;DHT22;10050;55.492;13.506;2023-08-06T15:06:44;15.30;99.90
19781;DHT22;10050;55.492;13.506;2023-08-06T15:09:09;15.30;99.90
19781;DHT22;10050;55.492;13.506;2023-08-06T15:11:35;15.30;99.90
19781;DHT22;10050;55.492;13.506;2023-08-06T15:14:01;15.30;99.90
19781;DHT22;10050;55.492;13.506;2023-08-06T15:16:26;15.30;99.90
19781;DHT22;10050;55.492;13.506;2023-08-06T15:18:52;15.20;99.90
19781;DHT22;10050;55.492;13.506;2023-08-06T15:21:18;15.00;99.90
19781;DHT22;10050;55.492;13.506;2023-08-06T15:23:44;15.10;99.90